<?xml version="1.0" encoding="UTF-8" standalone="no" ?>
<gpx xmlns="http://www.topografix.com/GPX/1/1" xmlns:xsi="http://www.w3.org/2001/XMLSchema-instance" xsi:schemaLocation="http://www.topografix.com/GPX/1/1 http://www.topografix.com/GPX/1/1/gpx.xsd" version="1.1" creator="VisuGPX - https://www.visugpx.com">
  <metadata>
    <name>trace 5</name>
  </metadata>
  <trk>
    <name><![CDATA[trace 5_4]]></name>
    <trkseg>
      <trkpt lat="48.64729" lon="-2.44834">
        <ele>89</ele>
        <time>2016-02-21T15:25:14.1Z</time>
      </trkpt>
      <trkpt lat="48.64731" lon="-2.44837">
        <ele>89</ele>
        <time>2016-02-21T15:25:17.1Z</time>
      </trkpt>
      <trkpt lat="48.64733" lon="-2.4484">
        <ele>89</ele>
        <time>2016-02-21T15:25:19.1Z</time>
      </trkpt>
      <trkpt lat="48.64737" lon="-2.44843">
        <ele>89</ele>
        <time>2016-02-21T15:25:22.1Z</time>
      </trkpt>
      <trkpt lat="48.6474" lon="-2.44847">
        <ele>88</ele>
        <time>2016-02-21T15:25:25.1Z</time>
      </trkpt>
      <trkpt lat="48.64742" lon="-2.4485">
        <ele>88</ele>
        <time>2016-02-21T15:25:27.1Z</time>
      </trkpt>
      <trkpt lat="48.64744" lon="-2.44852">
        <ele>89</ele>
        <time>2016-02-21T15:25:29.1Z</time>
      </trkpt>
      <trkpt lat="48.64749" lon="-2.44856">
        <ele>88</ele>
        <time>2016-02-21T15:25:32.1Z</time>
      </trkpt>
      <trkpt lat="48.64751" lon="-2.44858">
        <ele>88</ele>
        <time>2016-02-21T15:25:34.1Z</time>
      </trkpt>
      <trkpt lat="48.64753" lon="-2.4486">
        <ele>88</ele>
        <time>2016-02-21T15:25:36.1Z</time>
      </trkpt>
      <trkpt lat="48.64755" lon="-2.44861">
        <ele>88</ele>
        <time>2016-02-21T15:25:39.1Z</time>
      </trkpt>
      <trkpt lat="48.64758" lon="-2.44862">
        <ele>88</ele>
        <time>2016-02-21T15:25:42.1Z</time>
      </trkpt>
      <trkpt lat="48.64761" lon="-2.44864">
        <ele>88</ele>
        <time>2016-02-21T15:25:44.1Z</time>
      </trkpt>
      <trkpt lat="48.64763" lon="-2.44865">
        <ele>88</ele>
        <time>2016-02-21T15:25:46.1Z</time>
      </trkpt>
      <trkpt lat="48.64765" lon="-2.44866">
        <ele>87</ele>
        <time>2016-02-21T15:25:48.1Z</time>
      </trkpt>
      <trkpt lat="48.64767" lon="-2.44867">
        <ele>87</ele>
        <time>2016-02-21T15:25:50.1Z</time>
      </trkpt>
      <trkpt lat="48.6477" lon="-2.44868">
        <ele>87</ele>
        <time>2016-02-21T15:25:53.1Z</time>
      </trkpt>
      <trkpt lat="48.64772" lon="-2.44868">
        <ele>86</ele>
        <time>2016-02-21T15:25:55.1Z</time>
      </trkpt>
      <trkpt lat="48.64776" lon="-2.44868">
        <ele>87</ele>
        <time>2016-02-21T15:25:58.1Z</time>
      </trkpt>
      <trkpt lat="48.64777" lon="-2.44869">
        <ele>86</ele>
        <time>2016-02-21T15:26:00.1Z</time>
      </trkpt>
      <trkpt lat="48.64782" lon="-2.4487">
        <ele>86</ele>
        <time>2016-02-21T15:26:03.1Z</time>
      </trkpt>
      <trkpt lat="48.64786" lon="-2.44869">
        <ele>85</ele>
        <time>2016-02-21T15:26:06.1Z</time>
      </trkpt>
      <trkpt lat="48.6479" lon="-2.44869">
        <ele>85</ele>
        <time>2016-02-21T15:26:09.1Z</time>
      </trkpt>
      <trkpt lat="48.64794" lon="-2.44869">
        <ele>85</ele>
        <time>2016-02-21T15:26:12.1Z</time>
      </trkpt>
      <trkpt lat="48.64797" lon="-2.4487">
        <ele>85</ele>
        <time>2016-02-21T15:26:15.1Z</time>
      </trkpt>
      <trkpt lat="48.64801" lon="-2.44871">
        <ele>85</ele>
        <time>2016-02-21T15:26:18.1Z</time>
      </trkpt>
      <trkpt lat="48.64804" lon="-2.44872">
        <ele>85</ele>
        <time>2016-02-21T15:26:20.1Z</time>
      </trkpt>
      <trkpt lat="48.64808" lon="-2.44873">
        <ele>85</ele>
        <time>2016-02-21T15:26:23.1Z</time>
      </trkpt>
      <trkpt lat="48.64811" lon="-2.44874">
        <ele>84</ele>
        <time>2016-02-21T15:26:25.1Z</time>
      </trkpt>
      <trkpt lat="48.64814" lon="-2.44875">
        <ele>84</ele>
        <time>2016-02-21T15:26:28.1Z</time>
      </trkpt>
      <trkpt lat="48.64817" lon="-2.44876">
        <ele>84</ele>
        <time>2016-02-21T15:26:30.1Z</time>
      </trkpt>
      <trkpt lat="48.64819" lon="-2.44878">
        <ele>85</ele>
        <time>2016-02-21T15:26:33.1Z</time>
      </trkpt>
      <trkpt lat="48.64822" lon="-2.4488">
        <ele>84</ele>
        <time>2016-02-21T15:26:36.1Z</time>
      </trkpt>
      <trkpt lat="48.64823" lon="-2.44878">
        <ele>85</ele>
        <time>2016-02-21T15:26:39.1Z</time>
      </trkpt>
      <trkpt lat="48.64824" lon="-2.44878">
        <ele>85</ele>
        <time>2016-02-21T15:26:42.1Z</time>
      </trkpt>
      <trkpt lat="48.64825" lon="-2.44877">
        <ele>85</ele>
        <time>2016-02-21T15:26:45.1Z</time>
      </trkpt>
      <trkpt lat="48.64826" lon="-2.44877">
        <ele>85</ele>
        <time>2016-02-21T15:26:48.1Z</time>
      </trkpt>
      <trkpt lat="48.64827" lon="-2.44876">
        <ele>84</ele>
        <time>2016-02-21T15:26:50.1Z</time>
      </trkpt>
      <trkpt lat="48.64828" lon="-2.44876">
        <ele>84</ele>
        <time>2016-02-21T15:26:53.1Z</time>
      </trkpt>
      <trkpt lat="48.6483" lon="-2.44877">
        <ele>84</ele>
        <time>2016-02-21T15:26:55.1Z</time>
      </trkpt>
      <trkpt lat="48.64833" lon="-2.44879">
        <ele>84</ele>
        <time>2016-02-21T15:26:58.1Z</time>
      </trkpt>
      <trkpt lat="48.64836" lon="-2.4488">
        <ele>84</ele>
        <time>2016-02-21T15:27:01.1Z</time>
      </trkpt>
    </trkseg>
  </trk>
</gpx>